Time;durP1;ratioP1;P1;durP2;ratioP2;P2;SDS_P1;SDS_P2;PMS_P1;PMS_P2;Temp;Humidity;BMP_temperature;BMP_pressure;BME280_temperature;BME280_humidity;BME280_pressure;Samples;Min_cycle;Max_cycle;Signal;HPM_P1;HPM_P2
2023/12/06 00:01:44;;;;;;;34.10;22.90;;;;;;;-1.68;100.00;101025.21;88320;281;137686;-70
2023/12/06 00:03:47;;;;;;;37.10;24.20;;;;;;;-1.63;100.00;101025.14;88428;282;24055;-69
2023/12/06 00:05:50;;;;;;;37.20;26.00;;;;;;;-1.59;100.00;101029.91;88487;282;137401;-69
2023/12/06 00:07:52;;;;;;;35.00;24.50;;;;;;;-1.53;100.00;101030.42;88603;277;24015;-70
2023/12/06 00:09:54;;;;;;;35.90;25.80;;;;;;;-1.50;100.00;101027.78;88326;281;136593;-72
2023/12/06 00:11:56;;;;;;;35.10;24.00;;;;;;;-1.50;100.00;101032.88;88485;279;25409;-71
2023/12/06 00:13:58;;;;;;;33.40;23.80;;;;;;;-1.50;100.00;101031.33;88373;275;136400;-70
2023/12/06 00:16:00;;;;;;;33.90;25.00;;;;;;;-1.52;100.00;101032.99;88264;283;24058;-70
2023/12/06 00:18:03;;;;;;;32.80;22.20;;;;;;;-1.54;100.00;101035.02;88583;281;25252;-70
2023/12/06 00:20:06;;;;;;;34.60;22.40;;;;;;;-1.51;100.00;101033.44;88473;273;136879;-71
2023/12/06 00:22:08;;;;;;;33.80;23.20;;;;;;;-1.45;100.00;101035.19;88567;282;22620;-69
2023/12/06 00:24:10;;;;;;;35.40;24.40;;;;;;;-1.43;100.00;101034.71;88314;281;137993;-69
2023/12/06 00:26:12;;;;;;;38.30;24.40;;;;;;;-1.49;100.00;101023.02;88389;275;22539;-68
2023/12/06 00:28:14;;;;;;;36.70;24.80;;;;;;;-1.41;100.00;101037.56;88454;277;136620;-70
2023/12/06 00:30:16;;;;;;;28.60;20.20;;;;;;;-1.43;100.00;101036.77;88387;280;23079;-73
2023/12/06 00:32:18;;;;;;;36.50;24.30;;;;;;;-1.49;100.00;101034.91;88341;280;136861;-70
2023/12/06 00:34:20;;;;;;;30.70;21.80;;;;;;;-1.54;100.00;101031.23;88596;277;22601;-70
2023/12/06 00:36:22;;;;;;;31.00;22.00;;;;;;;-1.54;100.00;101031.90;88424;277;137346;-70
2023/12/06 00:38:24;;;;;;;36.60;24.40;;;;;;;-1.49;100.00;101029.30;88423;282;22973;-69
2023/12/06 00:40:26;;;;;;;36.00;24.10;;;;;;;-1.46;100.00;101029.95;88180;282;138535;-69
2023/12/06 00:42:28;;;;;;;35.70;24.20;;;;;;;-1.45;100.00;101029.56;88465;281;22537;-69
2023/12/06 00:44:30;;;;;;;35.00;24.50;;;;;;;-1.47;100.00;101023.80;88321;281;136509;-69
2023/12/06 00:46:32;;;;;;;36.30;26.00;;;;;;;-1.48;100.00;101020.17;88326;279;22526;-70
2023/12/06 00:48:34;;;;;;;41.20;27.20;;;;;;;-1.47;100.00;101021.90;88250;276;136922;-68
2023/12/06 00:50:36;;;;;;;38.40;24.90;;;;;;;-1.48;100.00;101018.98;88287;279;24173;-70
2023/12/06 00:52:38;;;;;;;40.30;24.60;;;;;;;-1.44;100.00;101021.18;88249;275;137167;-71
2023/12/06 00:54:43;;;;;;;35.30;23.60;;;;;;;-1.36;100.00;101024.17;88394;282;22460;-70
2023/12/06 00:56:45;;;;;;;36.60;22.80;;;;;;;-1.29;100.00;101025.49;88439;279;137470;-71
2023/12/06 00:58:46;;;;;;;42.60;24.40;;;;;;;-1.27;100.00;101023.05;88425;282;24032;-70
2023/12/06 01:00:49;;;;;;;34.60;25.60;;;;;;;-1.36;100.00;101014.21;88253;283;136229;-68
2023/12/06 01:02:51;;;;;;;33.20;23.90;;;;;;;-1.32;100.00;101027.60;88436;275;22534;-72
2023/12/06 01:04:53;;;;;;;33.90;24.60;;;;;;;-1.37;100.00;101029.09;88300;279;136589;-72
2023/12/06 01:06:55;;;;;;;36.80;25.90;;;;;;;-1.42;100.00;101026.76;88449;276;24074;-72
2023/12/06 01:08:57;;;;;;;38.00;25.80;;;;;;;-1.48;100.00;101027.00;88295;283;137122;-71
2023/12/06 01:10:59;;;;;;;34.10;24.60;;;;;;;-1.53;100.00;101026.24;88607;282;25209;-72
2023/12/06 01:13:01;;;;;;;42.90;25.40;;;;;;;-1.53;100.00;101021.87;88388;278;138073;-71
2023/12/06 01:15:06;;;;;;;41.10;26.10;;;;;;;-1.49;100.00;101022.55;88547;275;24212;-71
2023/12/06 01:17:08;;;;;;;34.50;25.10;;;;;;;-1.48;100.00;101022.77;88455;282;137385;-71
2023/12/06 01:19:10;;;;;;;33.60;24.50;;;;;;;-1.53;100.00;101011.27;88597;278;24052;-70
2023/12/06 01:21:13;;;;;;;39.80;26.70;;;;;;;-1.50;100.00;101015.59;88365;278;136817;-74
2023/12/06 01:23:15;;;;;;;36.10;25.60;;;;;;;-1.56;100.00;101016.14;88540;279;24173;-71
2023/12/06 01:25:17;;;;;;;38.40;26.80;;;;;;;-1.61;100.00;101014.16;88279;282;136502;-69
2023/12/06 01:27:19;;;;;;;39.50;27.20;;;;;;;-1.65;100.00;101014.40;88480;282;22830;-67
2023/12/06 01:29:22;;;;;;;44.20;27.70;;;;;;;-1.68;100.00;101012.37;88405;282;136548;-68
2023/12/06 01:31:25;;;;;;;36.70;24.70;;;;;;;-1.70;100.00;101008.27;88598;274;24087;-68
2023/12/06 01:33:27;;;;;;;37.20;25.10;;;;;;;-1.63;100.00;101007.84;88393;282;138903;-69
2023/12/06 01:35:29;;;;;;;33.80;24.20;;;;;;;-1.60;100.00;101003.64;88512;282;22539;-67
2023/12/06 01:37:31;;;;;;;34.80;23.20;;;;;;;-1.61;100.00;101000.04;88328;279;137545;-69
2023/12/06 01:39:33;;;;;;;35.50;24.00;;;;;;;-1.64;100.00;100998.99;88540;275;22554;-69
2023/12/06 01:41:35;;;;;;;37.50;26.30;;;;;;;-1.69;100.00;100998.45;88292;283;138099;-66
2023/12/06 01:43:43;;;;;;;34.80;25.60;;;;;;;-1.75;100.00;100995.15;88485;279;22534;-70
2023/12/06 01:45:45;;;;;;;39.70;26.50;;;;;;;-1.79;100.00;100997.45;88485;278;140449;-63
2023/12/06 01:47:49;;;;;;;35.90;24.40;;;;;;;-1.78;100.00;100996.05;88532;279;22527;-64
2023/12/06 01:49:53;;;;;;;41.50;25.60;;;;;;;-1.79;100.00;100994.86;88343;280;136692;-66
2023/12/06 01:51:55;;;;;;;39.40;25.30;;;;;;;-1.75;100.00;100995.88;88416;282;24061;-67
2023/12/06 01:53:59;;;;;;;39.00;25.60;;;;;;;-1.69;100.00;100996.03;88475;273;137294;-69
2023/12/06 01:56:04;;;;;;;31.60;22.60;;;;;;;-1.64;100.00;100997.98;88596;281;22949;-67
2023/12/06 01:58:06;;;;;;;38.80;25.70;;;;;;;-1.67;100.00;101000.98;88470;282;25210;-67
2023/12/06 02:00:09;;;;;;;40.60;26.10;;;;;;;-1.74;100.00;100997.73;88389;274;138292;-70
2023/12/06 02:02:14;;;;;;;33.80;23.60;;;;;;;-1.80;100.00;101000.86;88355;280;24032;-67
2023/12/06 02:04:16;;;;;;;38.00;25.30;;;;;;;-1.81;100.00;101001.27;88403;274;136863;-67
2023/12/06 02:06:18;;;;;;;33.70;24.50;;;;;;;-1.81;100.00;100994.99;88478;275;22886;-68
2023/12/06 02:08:20;;;;;;;39.10;26.00;;;;;;;-1.79;100.00;100997.12;88237;276;137304;-68
2023/12/06 02:10:24;;;;;;;33.10;22.80;;;;;;;-1.72;100.00;100991.51;88587;281;24169;-67
2023/12/06 02:12:26;;;;;;;33.30;21.70;;;;;;;-1.71;100.00;100990.05;88446;281;137194;-67
2023/12/06 02:14:34;;;;;;;39.20;25.20;;;;;;;-1.68;100.00;100982.02;88509;282;24018;-69
2023/12/06 02:16:36;;;;;;;32.90;23.20;;;;;;;-1.65;100.00;100981.67;88412;282;138139;-71
2023/12/06 02:18:38;;;;;;;33.10;25.00;;;;;;;-1.67;100.00;100980.38;88379;279;22528;-69
2023/12/06 02:20:41;;;;;;;36.20;24.10;;;;;;;-1.76;100.00;100981.06;88437;282;136519;-69
2023/12/06 02:22:43;;;;;;;33.20;21.90;;;;;;;-1.82;100.00;100986.84;88513;279;24018;-67
2023/12/06 02:24:47;;;;;;;34.80;24.70;;;;;;;-1.89;100.00;100986.41;88421;273;136699;-68
2023/12/06 02:26:52;;;;;;;36.40;25.40;;;;;;;-1.86;100.00;100989.00;88603;281;25242;-67
2023/12/06 02:28:57;;;;;;;;;;;;;;;-1.79;100.00;100990.70;88425;277;137558;-68
2023/12/06 02:30:59;;;;;;;34.60;25.00;;;;;;;-1.74;100.00;100988.64;88430;282;23717;-66
2023/12/06 02:33:01;;;;;;;36.00;24.20;;;;;;;-1.77;100.00;100982.36;88391;282;136716;-67
2023/12/06 02:35:40;;;;;;;40.70;26.60;;;;;;;-1.85;100.00;100982.86;88492;282;22685;-69
2023/12/06 02:37:44;;;;;;;40.90;26.70;;;;;;;-1.93;100.00;100982.11;88455;285;136307;-66
2023/12/06 02:39:48;;;;;;;44.00;25.70;;;;;;;-1.97;100.00;100983.73;88370;282;24657;-66
2023/12/06 02:41:51;;;;;;;39.20;25.30;;;;;;;-1.93;100.00;100983.20;88433;284;137049;-70
2023/12/06 02:43:55;;;;;;;33.20;23.80;;;;;;;-1.83;100.00;100980.48;88390;284;22530;-66
2023/12/06 02:45:58;;;;;;;32.10;22.40;;;;;;;-1.76;100.00;100980.78;88092;285;137149;-69
2023/12/06 02:47:59;;;;;;;29.30;20.00;;;;;;;-1.72;100.00;100986.80;88723;276;26115;-69
2023/12/06 02:50:02;;;;;;;34.90;25.70;;;;;;;-1.78;100.00;100986.47;88261;277;138010;-69
2023/12/06 02:52:07;;;;;;;32.60;23.30;;;;;;;-1.88;100.00;100984.60;88221;277;136768;-70
2023/12/06 02:54:09;;;;;;;33.70;23.30;;;;;;;-1.93;100.00;100981.80;88376;285;22536;-69
2023/12/06 02:56:11;;;;;;;34.50;25.50;;;;;;;-1.99;100.00;100978.45;88287;285;139489;-70
2023/12/06 02:58:13;;;;;;;39.40;25.60;;;;;;;-2.00;100.00;100980.11;88298;285;24024;-70
2023/12/06 03:00:16;;;;;;;35.60;24.60;;;;;;;-1.94;100.00;100983.95;88149;281;138256;-70
2023/12/06 03:02:18;;;;;;;35.00;23.80;;;;;;;-1.84;100.00;100988.02;88345;285;25309;-69
2023/12/06 03:04:20;;;;;;;34.00;24.50;;;;;;;-1.78;100.00;100991.80;88257;280;136854;-66
2023/12/06 03:06:22;;;;;;;37.60;25.10;;;;;;;-1.76;100.00;100997.85;88341;278;25083;-69
2023/12/06 03:08:26;;;;;;;36.90;24.20;;;;;;;-1.78;100.00;101001.61;88091;286;136497;-69
2023/12/06 03:10:28;;;;;;;38.50;26.70;;;;;;;-1.80;100.00;101002.75;88555;274;22538;-68
2023/12/06 03:12:33;;;;;;;39.80;27.60;;;;;;;-1.81;100.00;101006.52;88351;275;136430;-70
2023/12/06 03:14:35;;;;;;;35.40;24.00;;;;;;;-1.83;100.00;101003.66;88460;279;22518;-73
2023/12/06 03:16:37;;;;;;;35.80;23.70;;;;;;;-1.82;100.00;100994.91;88267;280;136163;-70
2023/12/06 03:18:39;;;;;;;35.90;23.70;;;;;;;-1.77;100.00;100990.38;88506;276;22537;-70
2023/12/06 03:20:41;;;;;;;35.10;24.60;;;;;;;-1.67;100.00;100986.48;88397;276;137396;-71
2023/12/06 03:22:43;;;;;;;34.10;23.90;;;;;;;-1.61;100.00;100986.81;88487;282;22546;-70
2023/12/06 03:24:45;;;;;;;35.70;25.70;;;;;;;-1.63;100.00;100989.23;88312;283;137655;-70
2023/12/06 03:26:48;;;;;;;36.00;26.30;;;;;;;-1.69;100.00;100990.42;88529;282;24021;-71
2023/12/06 03:28:50;;;;;;;34.50;25.40;;;;;;;-1.72;100.00;100984.92;88422;282;137835;-69
2023/12/06 03:30:52;;;;;;;38.00;24.20;;;;;;;-1.79;100.00;100985.78;88333;275;22538;-69
2023/12/06 03:32:54;;;;;;;34.10;23.30;;;;;;;-1.82;100.00;100988.75;88383;274;137262;-68
2023/12/06 03:34:56;;;;;;;38.30;23.10;;;;;;;-1.78;100.00;100981.17;88447;276;24052;-72
2023/12/06 03:36:59;;;;;;;35.00;25.20;;;;;;;-1.71;100.00;100983.43;88365;275;137420;-70
2023/12/06 03:39:01;;;;;;;34.70;23.50;;;;;;;-1.69;100.00;100976.84;88433;275;22544;-68
2023/12/06 03:41:04;;;;;;;35.00;26.20;;;;;;;-1.74;100.00;100983.29;88367;275;136670;-73
2023/12/06 03:43:06;;;;;;;32.50;23.10;;;;;;;-1.81;100.00;100984.87;88947;281;25090;-68
2023/12/06 03:45:09;;;;;;;38.50;26.00;;;;;;;-1.86;100.00;100982.91;88674;281;136604;-70
2023/12/06 03:47:12;;;;;;;35.00;24.50;;;;;;;-1.90;100.00;100988.55;88731;281;22520;-70
2023/12/06 03:49:14;;;;;;;39.20;24.20;;;;;;;-1.94;100.00;100987.59;88510;280;136254;-72
2023/12/06 03:52:09;;;;;;;37.90;24.40;;;;;;;-1.97;100.00;100993.35;86971;305;604008;-73
2023/12/06 03:54:11;;;;;;;39.50;25.40;;;;;;;-1.98;100.00;100990.23;88006;286;24162;-69
2023/12/06 03:56:15;;;;;;;31.50;22.90;;;;;;;-1.96;100.00;100993.08;87868;286;136677;-72
2023/12/06 03:58:17;;;;;;;35.50;23.70;;;;;;;-1.90;100.00;100990.33;88512;282;26285;-71
2023/12/06 04:00:20;;;;;;;36.10;24.30;;;;;;;-1.90;100.00;100989.27;88491;282;136512;-69
2023/12/06 04:02:22;;;;;;;32.60;22.60;;;;;;;-1.93;100.00;100995.35;88501;275;22533;-70
2023/12/06 04:04:25;;;;;;;34.70;24.50;;;;;;;-1.98;100.00;100994.75;88355;282;136010;-69
2023/12/06 04:06:27;;;;;;;39.90;26.30;;;;;;;-2.01;100.00;101000.89;87778;274;772476;-70
2023/12/06 04:08:29;;;;;;;37.20;24.60;;;;;;;-2.05;100.00;101009.29;88420;276;136055;-69
2023/12/06 04:10:32;;;;;;;43.60;27.60;;;;;;;-2.09;100.00;101009.91;88479;278;25080;-68
2023/12/06 04:12:37;;;;;;;36.90;25.00;;;;;;;-2.08;100.00;101011.77;88375;273;136547;-70
2023/12/06 04:14:39;;;;;;;35.30;24.10;;;;;;;-2.04;100.00;101017.59;88475;282;24375;-67
2023/12/06 04:16:42;;;;;;;33.20;24.00;;;;;;;-2.04;100.00;101009.76;88453;276;136998;-70
2023/12/06 04:18:44;;;;;;;33.50;21.80;;;;;;;-1.96;100.00;101016.98;88590;273;22538;-68
2023/12/06 04:20:46;;;;;;;35.90;23.00;;;;;;;-2.00;100.00;101017.56;88516;273;136271;-67
2023/12/06 04:22:48;;;;;;;30.70;22.00;;;;;;;-2.07;100.00;101017.62;88423;274;21515;-69
2023/12/06 04:24:50;;;;;;;37.40;23.70;;;;;;;-2.15;100.00;101012.84;88380;273;136123;-67
2023/12/06 04:26:52;;;;;;;39.40;23.80;;;;;;;-2.22;100.00;101015.85;88476;274;24019;-67
2023/12/06 04:28:55;;;;;;;35.30;24.60;;;;;;;-2.18;100.00;101015.48;88365;273;136935;-67
2023/12/06 04:30:57;;;;;;;36.80;23.60;;;;;;;-2.12;100.00;101014.81;88624;274;24170;-69
2023/12/06 04:33:00;;;;;;;35.00;25.30;;;;;;;-2.10;100.00;101010.31;88522;274;136834;-68
2023/12/06 04:35:04;;;;;;;41.10;26.20;;;;;;;-2.14;100.00;101011.57;88708;275;22523;-69
2023/12/06 04:37:06;;;;;;;38.60;28.60;;;;;;;-2.21;100.00;101010.92;88356;275;135990;-69
2023/12/06 04:39:08;;;;;;;38.40;28.00;;;;;;;-2.27;100.00;101005.37;88599;273;22640;-71
2023/12/06 04:41:13;;;;;;;42.30;27.00;;;;;;;-2.31;100.00;101010.09;88516;281;136545;-69
2023/12/06 04:43:17;;;;;;;42.00;26.00;;;;;;;-2.23;100.00;101008.63;88649;281;25207;-69
2023/12/06 04:45:19;;;;;;;36.50;24.30;;;;;;;-2.14;100.00;101013.98;88611;277;136999;-68
2023/12/06 04:47:22;;;;;;;40.60;27.40;;;;;;;-2.15;100.00;101012.49;88630;273;23967;-69
2023/12/06 04:49:26;;;;;;;43.90;29.00;;;;;;;-2.22;100.00;101010.48;88515;281;136474;-67
2023/12/06 04:51:28;;;;;;;49.60;30.60;;;;;;;-2.26;100.00;101013.65;88629;274;24164;-71
2023/12/06 04:53:30;;;;;;;36.50;25.00;;;;;;;-2.26;100.00;101014.20;88487;281;135876;-68
2023/12/06 04:55:32;;;;;;;40.20;24.50;;;;;;;-2.19;100.00;101014.14;88586;273;24050;-66
2023/12/06 04:57:34;;;;;;;31.20;22.50;;;;;;;-2.10;100.00;101015.02;88576;273;137223;-66
2023/12/06 04:59:36;;;;;;;39.30;27.30;;;;;;;-2.03;100.00;101017.52;88607;273;25217;-68
2023/12/06 05:01:38;;;;;;;39.00;27.40;;;;;;;-2.01;100.00;101018.48;88317;272;136332;-70
2023/12/06 05:03:42;;;;;;;39.30;25.90;;;;;;;-2.04;100.00;101020.39;88342;275;23885;-68
2023/12/06 05:05:44;;;;;;;38.80;27.50;;;;;;;-2.06;100.00;101024.68;88459;278;136650;-68
2023/12/06 05:07:46;;;;;;;43.10;29.30;;;;;;;-2.07;100.00;101025.29;88402;274;22537;-70
2023/12/06 05:09:49;;;;;;;38.70;27.70;;;;;;;-2.09;100.00;101022.27;88302;273;136227;-70
2023/12/06 05:11:51;;;;;;;44.00;28.80;;;;;;;-2.13;100.00;101021.29;88360;273;22551;-68
2023/12/06 05:13:54;;;;;;;40.70;26.80;;;;;;;-2.18;100.00;101008.84;88383;273;138899;-71
2023/12/06 05:15:56;;;;;;;33.50;23.00;;;;;;;-2.03;100.00;101023.29;88091;277;24004;-73
2023/12/06 05:17:58;;;;;;;37.00;25.30;;;;;;;-2.00;100.00;101019.98;88059;274;137149;-74
2023/12/06 05:20:01;;;;;;;38.20;25.80;;;;;;;-2.01;100.00;101016.91;88224;273;24025;-76
2023/12/06 05:22:03;;;;;;;38.20;25.80;;;;;;;-2.04;100.00;101012.43;88202;278;22657;-75
2023/12/06 05:24:05;;;;;;;38.20;27.50;;;;;;;-2.10;100.00;101016.92;88234;275;136545;-74
2023/12/06 05:26:07;;;;;;;41.50;27.30;;;;;;;-2.14;100.00;101021.32;88949;275;22536;-79
2023/12/06 05:28:09;;;;;;;33.30;22.80;;;;;;;-2.14;100.00;101016.09;88027;273;138066;-72
2023/12/06 05:30:12;;;;;;;36.90;24.70;;;;;;;-2.10;100.00;101025.98;88164;273;25233;-74
2023/12/06 05:32:14;;;;;;;38.10;27.00;;;;;;;-2.01;100.00;101015.69;88485;274;138125;-70
2023/12/06 05:34:16;;;;;;;39.30;28.30;;;;;;;-1.95;100.00;101013.77;88142;273;22492;-68
2023/12/06 05:36:18;;;;;;;41.40;28.50;;;;;;;-1.97;100.00;101019.80;87982;273;137596;-70
2023/12/06 05:38:21;;;;;;;37.80;26.70;;;;;;;-1.99;100.00;101016.45;88101;275;25213;-72
2023/12/06 05:40:23;;;;;;;41.30;26.90;;;;;;;-2.00;100.00;101020.49;88118;281;135942;-72
2023/12/06 05:42:26;;;;;;;39.00;26.30;;;;;;;-2.11;100.00;101006.88;88310;277;22962;-68
2023/12/06 05:44:28;;;;;;;38.60;27.70;;;;;;;-2.02;100.00;101026.21;91064;279;136527;-71
2023/12/06 05:46:30;;;;;;;38.80;27.50;;;;;;;-1.96;100.00;101017.48;90550;281;22547;-72
2023/12/06 05:48:32;;;;;;;42.50;27.10;;;;;;;-1.88;100.00;101019.79;90736;280;136740;-70
2023/12/06 05:50:34;;;;;;;44.00;30.00;;;;;;;-1.82;100.00;101021.88;88138;281;22551;-70
2023/12/06 05:52:37;;;;;;;41.80;28.10;;;;;;;-1.82;100.00;101020.31;88044;273;136179;-71
2023/12/06 05:54:39;;;;;;;34.40;24.30;;;;;;;-1.85;100.00;101022.23;89251;277;22544;-73
2023/12/06 05:56:42;;;;;;;34.90;25.30;;;;;;;-1.87;100.00;101023.73;88067;277;136111;-72
2023/12/06 05:58:44;;;;;;;37.00;26.40;;;;;;;-1.89;100.00;101021.98;88142;281;22564;-70
2023/12/06 06:00:46;;;;;;;39.10;24.70;;;;;;;-1.98;100.00;101013.97;88847;280;137236;-74
2023/12/06 06:02:49;;;;;;;39.10;26.20;;;;;;;-1.95;100.00;101025.61;88393;277;24037;-72
2023/12/06 06:04:51;;;;;;;42.90;26.20;;;;;;;-1.98;100.00;101028.42;88192;277;136127;-72
2023/12/06 06:06:54;;;;;;;31.80;22.30;;;;;;;-1.93;100.00;101030.05;88219;273;23864;-70
2023/12/06 06:08:57;;;;;;;33.40;21.90;;;;;;;-1.85;100.00;101032.49;88270;273;136711;-72
2023/12/06 06:10:59;;;;;;;32.30;23.30;;;;;;;-1.89;100.00;101019.67;88154;273;22615;-71
2023/12/06 06:13:02;;;;;;;34.60;21.90;;;;;;;-1.84;100.00;101038.20;88071;275;137492;-72
2023/12/06 06:15:05;;;;;;;35.90;21.70;;;;;;;-1.89;100.00;101041.63;88230;273;24174;-70
2023/12/06 06:17:07;;;;;;;30.60;21.70;;;;;;;-1.91;100.00;101045.96;88208;281;136520;-73
2023/12/06 06:19:09;;;;;;;38.40;25.20;;;;;;;-1.93;100.00;101045.55;88188;274;24027;-72
2023/12/06 06:21:11;;;;;;;33.50;25.20;;;;;;;-1.96;100.00;101049.20;87995;275;136642;-71
2023/12/06 06:23:13;;;;;;;35.20;23.50;;;;;;;-1.99;100.00;101050.58;88251;275;22641;-71
2023/12/06 06:25:15;;;;;;;32.30;22.40;;;;;;;-2.01;100.00;101054.02;88307;273;136229;-74
2023/12/06 06:27:17;;;;;;;33.70;22.60;;;;;;;-1.96;100.00;101055.80;88206;274;23858;-72
2023/12/06 06:29:19;;;;;;;32.30;22.20;;;;;;;-1.86;100.00;101056.26;88287;275;136961;-74
2023/12/06 06:31:22;;;;;;;34.50;22.60;;;;;;;-1.82;100.00;101055.66;88535;282;24018;-73
2023/12/06 06:33:24;;;;;;;30.30;20.80;;;;;;;-1.94;100.00;101038.98;88514;273;136533;-72
2023/12/06 06:35:28;;;;;;;31.70;21.50;;;;;;;-1.93;100.00;101057.75;88496;273;22527;-72
2023/12/06 06:37:30;;;;;;;33.00;25.10;;;;;;;-2.01;100.00;101058.55;88417;273;136396;-72
2023/12/06 06:39:32;;;;;;;35.00;24.00;;;;;;;-2.08;100.00;101059.28;88424;273;22550;-71
2023/12/06 06:41:36;;;;;;;32.20;21.10;;;;;;;-2.12;100.00;101060.40;88389;282;137428;-71
2023/12/06 06:43:38;;;;;;;35.00;24.80;;;;;;;-2.18;100.00;101058.27;88444;279;22879;-72
2023/12/06 06:45:43;;;;;;;33.60;21.80;;;;;;;-2.12;100.00;101064.40;88374;277;138567;-71
2023/12/06 06:47:45;;;;;;;33.80;22.10;;;;;;;-2.05;100.00;101062.42;88583;274;24072;-72
2023/12/06 06:49:48;;;;;;;34.70;22.80;;;;;;;-2.00;100.00;101061.05;88377;273;137445;-70
2023/12/06 06:51:50;;;;;;;32.30;22.70;;;;;;;-2.00;100.00;101066.34;88522;273;24054;-72
2023/12/06 06:53:52;;;;;;;33.50;23.10;;;;;;;-2.04;100.00;101069.52;88305;273;137079;-72
2023/12/06 06:55:54;;;;;;;33.00;23.50;;;;;;;-2.06;100.00;101069.29;88426;274;22546;-72
2023/12/06 06:57:56;;;;;;;40.90;26.00;;;;;;;-2.08;100.00;101069.89;88382;273;138015;-69
2023/12/06 06:59:59;;;;;;;39.30;23.70;;;;;;;-2.09;100.00;101073.31;88493;273;22530;-72
2023/12/06 07:02:02;;;;;;;36.10;23.20;;;;;;;-2.11;100.00;101070.10;88357;280;136248;-72
2023/12/06 07:04:05;;;;;;;37.10;25.00;;;;;;;-2.08;100.00;101071.14;88343;282;138694;-68
2023/12/06 07:06:08;;;;;;;36.20;24.80;;;;;;;-2.04;100.00;101072.46;88427;281;25229;-72
2023/12/06 07:08:10;;;;;;;38.10;24.20;;;;;;;-2.01;100.00;101067.23;88220;275;136481;-67
2023/12/06 07:10:13;;;;;;;38.70;26.10;;;;;;;-2.03;100.00;101073.13;88468;282;26173;-70
2023/12/06 07:12:15;;;;;;;32.40;23.30;;;;;;;-2.09;100.00;101078.52;89954;278;137622;-69
2023/12/06 07:14:17;;;;;;;38.40;25.70;;;;;;;-2.14;100.00;101077.05;88349;273;22530;-71
2023/12/06 07:16:19;;;;;;;36.20;25.10;;;;;;;-2.14;100.00;101077.75;88261;274;137273;-71
2023/12/06 07:18:22;;;;;;;36.70;24.60;;;;;;;-2.15;100.00;101081.46;91313;281;22387;-71
2023/12/06 07:20:27;;;;;;;33.80;23.20;;;;;;;-2.07;100.00;101075.08;88379;275;137621;-71
2023/12/06 07:22:41;;;;;;;36.00;24.60;;;;;;;-1.95;100.00;101084.65;88378;281;25239;-68
2023/12/06 07:24:43;;;;;;;32.90;23.60;;;;;;;-1.88;100.00;101081.09;88274;277;136800;-69
2023/12/06 07:26:44;;;;;;;44.00;25.60;;;;;;;-1.89;100.00;101085.73;88420;274;22526;-72
2023/12/06 07:28:46;;;;;;;38.60;24.90;;;;;;;-2.04;100.00;101066.20;88448;274;138175;-73
2023/12/06 07:30:48;;;;;;;36.60;24.70;;;;;;;-2.00;100.00;101082.48;88602;273;25373;-72
2023/12/06 07:32:51;;;;;;;39.10;25.70;;;;;;;-2.01;100.00;101085.88;88443;280;137713;-70
2023/12/06 07:34:56;;;;;;;40.30;24.90;;;;;;;-2.03;100.00;101091.92;88580;273;24020;-71
2023/12/06 07:37:01;;;;;;;39.30;27.50;;;;;;;-2.02;100.00;101080.21;88383;274;138556;-70
2023/12/06 07:39:05;;;;;;;42.80;27.30;;;;;;;-1.89;100.00;101088.48;88584;274;25229;-69
2023/12/06 07:41:07;;;;;;;41.90;27.40;;;;;;;-1.82;100.00;101086.33;88282;278;137313;-70
2023/12/06 07:43:10;;;;;;;41.40;26.30;;;;;;;-1.86;100.00;101089.70;88452;273;22534;-68
2023/12/06 07:45:12;;;;;;;47.40;28.70;;;;;;;-1.93;100.00;101084.55;88562;274;136671;-69
2023/12/06 07:47:17;;;;;;;45.60;30.10;;;;;;;-1.97;100.00;101085.32;88600;273;22533;-70
2023/12/06 07:49:19;;;;;;;46.00;29.80;;;;;;;-1.99;100.00;101087.33;88406;273;136471;-70
2023/12/06 07:51:22;;;;;;;51.70;28.30;;;;;;;-2.00;100.00;101090.55;88477;274;24104;-69
2023/12/06 07:53:26;;;;;;;48.00;29.90;;;;;;;-1.94;100.00;101089.48;88448;274;137622;-71
2023/12/06 07:55:29;;;;;;;43.20;29.40;;;;;;;-1.80;100.00;101095.80;88639;283;22553;-72
2023/12/06 07:57:34;;;;;;;49.30;31.40;;;;;;;-1.74;100.00;101098.25;88541;277;136995;-73
2023/12/06 07:59:38;;;;;;;44.20;30.40;;;;;;;-1.76;100.00;101100.27;88698;275;22492;-70
2023/12/06 08:01:43;;;;;;;52.40;31.50;;;;;;;-1.80;100.00;101092.16;88425;275;136698;-72
2023/12/06 08:03:50;;;;;;;47.60;30.90;;;;;;;-1.83;100.00;101092.31;88575;278;25286;-71
2023/12/06 08:06:05;;;;;;;55.30;34.20;;;;;;;-1.83;100.00;101095.13;88470;274;136554;-71
2023/12/06 08:08:08;;;;;;;48.50;31.80;;;;;;;-1.85;100.00;101093.11;88393;273;137020;-72
2023/12/06 08:10:13;;;;;;;46.80;29.40;;;;;;;-1.82;100.00;101097.48;88620;281;22531;-74
2023/12/06 08:12:15;;;;;;;39.40;27.20;;;;;;;-1.72;100.00;101096.75;88492;281;138829;-71
2023/12/06 08:14:17;;;;;;;48.40;31.40;;;;;;;-1.65;100.00;101094.56;88354;283;24095;-72
2023/12/06 08:16:19;;;;;;;48.00;32.50;;;;;;;-1.63;100.00;101102.63;88440;277;137528;-74
2023/12/06 08:18:22;;;;;;;51.00;33.20;;;;;;;-1.66;100.00;101101.60;88607;274;26249;-72
2023/12/06 08:20:24;;;;;;;51.50;31.90;;;;;;;-1.70;100.00;101101.33;88499;273;136965;-70
2023/12/06 08:22:27;;;;;;;50.00;31.20;;;;;;;-1.76;100.00;101100.79;88530;280;22547;-70
2023/12/06 08:24:29;;;;;;;48.70;30.70;;;;;;;-1.71;100.00;101107.14;88404;280;138902;-70
2023/12/06 08:26:32;;;;;;;44.80;28.00;;;;;;;-1.58;100.00;101106.00;88521;278;25252;-71
2023/12/06 08:28:34;;;;;;;41.90;29.00;;;;;;;-1.54;100.00;101105.11;88639;280;136816;-71
2023/12/06 08:30:38;;;;;;;47.10;31.50;;;;;;;-1.61;100.00;101104.09;88526;273;22550;-68
2023/12/06 08:32:41;;;;;;;46.00;32.00;;;;;;;-1.66;100.00;101107.41;88428;281;138199;-68
2023/12/06 08:34:43;;;;;;;46.20;31.50;;;;;;;-1.69;100.00;101110.34;88667;273;25122;-72
2023/12/06 08:36:45;;;;;;;47.00;30.10;;;;;;;-1.69;100.00;101102.86;88472;280;136459;-66
2023/12/06 08:38:50;;;;;;;41.50;26.50;;;;;;;-1.70;100.00;101112.64;88727;280;24326;-66
2023/12/06 08:40:54;;;;;;;40.90;26.20;;;;;;;-1.63;100.00;101109.45;88416;280;137373;-73
2023/12/06 08:43:00;;;;;;;37.90;26.60;;;;;;;-1.57;100.00;101106.33;88457;280;22534;-73
2023/12/06 08:45:05;;;;;;;39.10;26.30;;;;;;;-1.57;100.00;101110.52;88392;280;136833;-73
2023/12/06 08:47:12;;;;;;;41.10;26.60;;;;;;;-1.67;100.00;101103.58;88505;280;22566;-69
2023/12/06 08:49:14;;;;;;;37.50;26.10;;;;;;;-1.73;100.00;101099.23;88356;273;138027;-71
2023/12/06 08:51:16;;;;;;;42.60;25.70;;;;;;;-1.78;100.00;101110.67;88506;280;22655;-71
2023/12/06 08:53:18;;;;;;;41.60;26.80;;;;;;;-1.78;100.00;101107.87;88389;277;137102;-72
2023/12/06 08:55:20;;;;;;;44.00;28.70;;;;;;;-1.69;100.00;101100.06;88484;277;23325;-70
2023/12/06 08:57:22;;;;;;;44.10;31.20;;;;;;;-1.62;100.00;101098.23;88281;277;137106;-69
2023/12/06 08:59:26;;;;;;;45.20;29.90;;;;;;;-1.59;100.00;101098.25;88450;277;24014;-73
2023/12/06 09:01:28;;;;;;;41.10;27.40;;;;;;;-1.54;100.00;101098.30;88452;273;136562;-73
2023/12/06 09:03:30;;;;;;;37.60;27.50;;;;;;;-1.52;100.00;101099.40;88453;277;22550;-72
2023/12/06 09:05:34;;;;;;;37.90;25.00;;;;;;;-1.54;100.00;101093.73;88338;280;137724;-73
2023/12/06 09:07:36;;;;;;;39.50;25.50;;;;;;;-1.58;100.00;101097.14;88661;272;24990;-70
2023/12/06 09:09:38;;;;;;;34.10;24.10;;;;;;;-1.48;100.00;101087.34;88361;277;137258;-72
2023/12/06 09:11:40;;;;;;;40.50;26.00;;;;;;;-1.36;100.00;101088.36;88430;273;22551;-71
2023/12/06 09:13:42;;;;;;;37.80;26.40;;;;;;;-1.31;100.00;101087.70;88366;273;138041;-72
2023/12/06 09:15:45;;;;;;;40.20;26.60;;;;;;;-1.33;100.00;101090.61;88497;273;22554;-71